sensor_id;sensor_type;location;lat;lon;timestamp;P1;durP1;ratioP1;P2;durP2;ratioP2
68655;SDS011;55638;51.122;13.606;2023-03-14T12:12:06;1.48;;;0.30;;
68655;SDS011;55638;51.122;13.606;2023-03-14T12:13:46;0.70;;;0.30;;
68655;SDS011;55638;51.122;13.606;2023-03-14T12:15:21;0.60;;;0.47;;
68655;SDS011;55638;51.122;13.606;2023-03-14T12:16:55;0.57;;;0.57;;
68655;SDS011;55638;51.122;13.606;2023-03-14T12:18:33;1.65;;;0.68;;
68655;SDS011;55638;51.122;13.606;2023-03-14T12:20:23;1.10;;;0.90;;
68655;SDS011;55638;51.122;13.606;2023-03-14T12:23:52;1.13;;;1.13;;
68655;SDS011;55638;51.122;13.606;2023-03-14T12:25:26;1.80;;;1.70;;
68655;SDS011;55638;51.122;13.606;2023-03-14T12:27:03;1.88;;;1.77;;
68655;SDS011;55638;51.122;13.606;2023-03-14T12:28:37;1.88;;;1.67;;
68655;SDS011;55638;51.122;13.606;2023-03-14T12:30:37;2.17;;;1.67;;
68655;SDS011;55638;51.122;13.606;2023-03-14T12:32:21;2.35;;;2.20;;
68655;SDS011;55638;51.122;13.606;2023-03-14T12:34:02;2.55;;;2.45;;
68655;SDS011;55638;51.122;13.606;2023-03-14T12:37:25;2.83;;;2.72;;
68655;SDS011;55638;51.122;13.606;2023-03-14T12:39:07;4.35;;;4.25;;
68655;SDS011;55638;51.122;13.606;2023-03-14T12:42:59;0.40;;;0.35;;
68655;SDS011;55638;51.122;13.606;2023-03-14T12:44:43;0.20;;;0.20;;
68655;SDS011;55638;51.122;13.606;2023-03-14T12:49:32;0.60;;;0.60;;
68655;SDS011;55638;51.122;13.606;2023-03-14T12:53:09;0.43;;;0.35;;
68655;SDS011;55638;51.122;13.606;2023-03-14T12:57:03;0.30;;;0.20;;
68655;SDS011;55638;51.122;13.606;2023-03-14T12:58:45;0.40;;;0.30;;
68655;SDS011;55638;51.122;13.606;2023-03-14T13:00:35;0.55;;;0.47;;
68655;SDS011;55638;51.122;13.606;2023-03-14T13:02:22;0.40;;;0.40;;
68655;SDS011;55638;51.122;13.606;2023-03-14T13:03:57;1.13;;;0.70;;
68655;SDS011;55638;51.122;13.606;2023-03-14T13:05:34;0.40;;;0.32;;
68655;SDS011;55638;51.122;13.606;2023-03-14T13:07:10;0.45;;;0.30;;
68655;SDS011;55638;51.122;13.606;2023-03-14T13:09:34;0.40;;;0.30;;
68655;SDS011;55638;51.122;13.606;2023-03-14T13:10:56;0.43;;;0.43;;
68655;SDS011;55638;51.122;13.606;2023-03-14T13:12:28;0.30;;;0.30;;
68655;SDS011;55638;51.122;13.606;2023-03-14T13:14:07;0.30;;;0.30;;
68655;SDS011;55638;51.122;13.606;2023-03-14T13:15:42;0.50;;;0.50;;
68655;SDS011;55638;51.122;13.606;2023-03-14T13:17:19;0.35;;;0.35;;
68655;SDS011;55638;51.122;13.606;2023-03-14T13:19:39;0.50;;;0.50;;
68655;SDS011;55638;51.122;13.606;2023-03-14T13:21:17;0.80;;;0.32;;
68655;SDS011;55638;51.122;13.606;2023-03-14T13:22:54;0.75;;;0.50;;
68655;SDS011;55638;51.122;13.606;2023-03-14T13:24:26;0.63;;;0.40;;
68655;SDS011;55638;51.122;13.606;2023-03-14T13:25:59;0.47;;;0.47;;
68655;SDS011;55638;51.122;13.606;2023-03-14T13:27:33;0.40;;;0.40;;
68655;SDS011;55638;51.122;13.606;2023-03-14T13:29:25;0.50;;;0.35;;
68655;SDS011;55638;51.122;13.606;2023-03-14T13:31:01;0.47;;;0.43;;
68655;SDS011;55638;51.122;13.606;2023-03-14T13:32:34;0.50;;;0.50;;
68655;SDS011;55638;51.122;13.606;2023-03-14T13:34:14;0.80;;;0.40;;
68655;SDS011;55638;51.122;13.606;2023-03-14T13:35:47;0.35;;;0.35;;
68655;SDS011;55638;51.122;13.606;2023-03-14T13:37:22;0.40;;;0.40;;
68655;SDS011;55638;51.122;13.606;2023-03-14T13:38:56;0.50;;;0.50;;
68655;SDS011;55638;51.122;13.606;2023-03-14T13:40:31;0.40;;;0.38;;
68655;SDS011;55638;51.122;13.606;2023-03-14T13:42:04;0.43;;;0.40;;
68655;SDS011;55638;51.122;13.606;2023-03-14T13:43:39;0.30;;;0.30;;
68655;SDS011;55638;51.122;13.606;2023-03-14T13:45:13;0.40;;;0.40;;
68655;SDS011;55638;51.122;13.606;2023-03-14T13:46:45;0.40;;;0.40;;
68655;SDS011;55638;51.122;13.606;2023-03-14T13:48:18;0.40;;;0.40;;
68655;SDS011;55638;51.122;13.606;2023-03-14T13:49:50;0.50;;;0.30;;
68655;SDS011;55638;51.122;13.606;2023-03-14T13:51:23;0.60;;;0.60;;
68655;SDS011;55638;51.122;13.606;2023-03-14T13:52:59;0.63;;;0.55;;
68655;SDS011;55638;51.122;13.606;2023-03-14T13:54:32;1.10;;;0.43;;
68655;SDS011;55638;51.122;13.606;2023-03-14T13:56:04;0.40;;;0.40;;
68655;SDS011;55638;51.122;13.606;2023-03-14T13:59:25;1.23;;;0.57;;
68655;SDS011;55638;51.122;13.606;2023-03-14T14:02:58;0.55;;;0.50;;
68655;SDS011;55638;51.122;13.606;2023-03-14T14:04:32;1.00;;;0.40;;
68655;SDS011;55638;51.122;13.606;2023-03-14T14:06:08;0.60;;;0.40;;
68655;SDS011;55638;51.122;13.606;2023-03-14T14:07:49;0.50;;;0.50;;
68655;SDS011;55638;51.122;13.606;2023-03-14T14:09:23;0.50;;;0.40;;
68655;SDS011;55638;51.122;13.606;2023-03-14T14:10:59;0.35;;;0.35;;
68655;SDS011;55638;51.122;13.606;2023-03-14T14:12:33;0.40;;;0.40;;
68655;SDS011;55638;51.122;13.606;2023-03-14T14:14:12;0.82;;;0.40;;
68655;SDS011;55638;51.122;13.606;2023-03-14T14:15:48;0.43;;;0.43;;
68655;SDS011;55638;51.122;13.606;2023-03-14T14:17:24;0.52;;;0.47;;
68655;SDS011;55638;51.122;13.606;2023-03-14T14:19:01;0.50;;;0.40;;
68655;SDS011;55638;51.122;13.606;2023-03-14T14:20:34;0.55;;;0.40;;
68655;SDS011;55638;51.122;13.606;2023-03-14T14:22:10;0.40;;;0.40;;
68655;SDS011;55638;51.122;13.606;2023-03-14T14:23:42;0.45;;;0.45;;
68655;SDS011;55638;51.122;13.606;2023-03-14T14:25:14;0.40;;;0.40;;
68655;SDS011;55638;51.122;13.606;2023-03-14T14:26:47;0.73;;;0.60;;
68655;SDS011;55638;51.122;13.606;2023-03-14T14:28:24;0.50;;;0.50;;
68655;SDS011;55638;51.122;13.606;2023-03-14T14:30:00;0.73;;;0.63;;
68655;SDS011;55638;51.122;13.606;2023-03-14T14:31:35;0.63;;;0.45;;
68655;SDS011;55638;51.122;13.606;2023-03-14T14:33:18;0.40;;;0.40;;
68655;SDS011;55638;51.122;13.606;2023-03-14T14:38:10;0.32;;;0.32;;
68655;SDS011;55638;51.122;13.606;2023-03-14T14:39:47;0.30;;;0.30;;
68655;SDS011;55638;51.122;13.606;2023-03-14T14:41:20;0.60;;;0.40;;
68655;SDS011;55638;51.122;13.606;2023-03-14T14:42:52;0.40;;;0.40;;
68655;SDS011;55638;51.122;13.606;2023-03-14T14:44:28;0.50;;;0.50;;
68655;SDS011;55638;51.122;13.606;2023-03-14T14:46:06;0.43;;;0.40;;
68655;SDS011;55638;51.122;13.606;2023-03-14T14:47:48;0.25;;;0.25;;
68655;SDS011;55638;51.122;13.606;2023-03-14T14:49:30;0.65;;;0.30;;
68655;SDS011;55638;51.122;13.606;2023-03-14T14:51:04;0.28;;;0.25;;
68655;SDS011;55638;51.122;13.606;2023-03-14T14:52:41;0.40;;;0.20;;
68655;SDS011;55638;51.122;13.606;2023-03-14T14:54:16;0.38;;;0.38;;
68655;SDS011;55638;51.122;13.606;2023-03-14T14:55:50;0.43;;;0.38;;
68655;SDS011;55638;51.122;13.606;2023-03-14T14:57:27;0.30;;;0.30;;
68655;SDS011;55638;51.122;13.606;2023-03-14T14:59:17;0.38;;;0.30;;
68655;SDS011;55638;51.122;13.606;2023-03-14T15:00:54;0.40;;;0.40;;
68655;SDS011;55638;51.122;13.606;2023-03-14T15:02:50;0.22;;;0.22;;
68655;SDS011;55638;51.122;13.606;2023-03-14T15:04:26;0.28;;;0.28;;
68655;SDS011;55638;51.122;13.606;2023-03-14T15:06:01;0.30;;;0.30;;
68655;SDS011;55638;51.122;13.606;2023-03-14T15:07:34;0.30;;;0.30;;
68655;SDS011;55638;51.122;13.606;2023-03-14T15:09:08;0.30;;;0.30;;
68655;SDS011;55638;51.122;13.606;2023-03-14T15:10:41;0.30;;;0.30;;
68655;SDS011;55638;51.122;13.606;2023-03-14T15:12:13;0.40;;;0.30;;
68655;SDS011;55638;51.122;13.606;2023-03-14T15:13:45;1.00;;;0.40;;
68655;SDS011;55638;51.122;13.606;2023-03-14T15:15:17;0.28;;;0.28;;
68655;SDS011;55638;51.122;13.606;2023-03-14T15:16:49;0.50;;;0.40;;
68655;SDS011;55638;51.122;13.606;2023-03-14T15:18:21;0.35;;;0.25;;
68655;SDS011;55638;51.122;13.606;2023-03-14T15:19:55;0.55;;;0.30;;
68655;SDS011;55638;51.122;13.606;2023-03-14T15:21:29;0.30;;;0.30;;
68655;SDS011;55638;51.122;13.606;2023-03-14T15:23:01;0.63;;;0.30;;
68655;SDS011;55638;51.122;13.606;2023-03-14T15:24:33;0.20;;;0.20;;
68655;SDS011;55638;51.122;13.606;2023-03-14T15:26:10;0.63;;;0.30;;
68655;SDS011;55638;51.122;13.606;2023-03-14T15:27:44;0.30;;;0.20;;
68655;SDS011;55638;51.122;13.606;2023-03-14T15:29:16;1.77;;;0.25;;
68655;SDS011;55638;51.122;13.606;2023-03-14T15:30:49;0.38;;;0.30;;
68655;SDS011;55638;51.122;13.606;2023-03-14T15:32:23;0.28;;;0.20;;
68655;SDS011;55638;51.122;13.606;2023-03-14T15:33:55;0.20;;;0.20;;
68655;SDS011;55638;51.122;13.606;2023-03-14T15:35:27;0.70;;;0.35;;
68655;SDS011;55638;51.122;13.606;2023-03-14T15:36:58;0.30;;;0.30;;
68655;SDS011;55638;51.122;13.606;2023-03-14T15:38:30;0.17;;;0.17;;
68655;SDS011;55638;51.122;13.606;2023-03-14T15:40:03;0.15;;;0.15;;
68655;SDS011;55638;51.122;13.606;2023-03-14T15:41:43;0.50;;;0.20;;
68655;SDS011;55638;51.122;13.606;2023-03-14T15:43:15;0.55;;;0.28;;
68655;SDS011;55638;51.122;13.606;2023-03-14T15:44:47;0.30;;;0.20;;
68655;SDS011;55638;51.122;13.606;2023-03-14T15:46:19;0.30;;;0.25;;
68655;SDS011;55638;51.122;13.606;2023-03-14T15:47:53;0.60;;;0.32;;
68655;SDS011;55638;51.122;13.606;2023-03-14T15:49:25;0.30;;;0.22;;
68655;SDS011;55638;51.122;13.606;2023-03-14T15:50:56;0.57;;;0.30;;
68655;SDS011;55638;51.122;13.606;2023-03-14T15:52:28;0.47;;;0.20;;
68655;SDS011;55638;51.122;13.606;2023-03-14T15:54:00;0.20;;;0.20;;
68655;SDS011;55638;51.122;13.606;2023-03-14T15:55:32;0.95;;;0.40;;
68655;SDS011;55638;51.122;13.606;2023-03-14T15:57:04;0.38;;;0.10;;
68655;SDS011;55638;51.122;13.606;2023-03-14T15:58:38;0.47;;;0.20;;
68655;SDS011;55638;51.122;13.606;2023-03-14T16:00:13;0.10;;;0.10;;
68655;SDS011;55638;51.122;13.606;2023-03-14T16:01:49;0.30;;;0.10;;
68655;SDS011;55638;51.122;13.606;2023-03-14T16:03:21;0.30;;;0.13;;
68655;SDS011;55638;51.122;13.606;2023-03-14T16:04:52;0.63;;;0.15;;
68655;SDS011;55638;51.122;13.606;2023-03-14T16:06:24;0.30;;;0.20;;
68655;SDS011;55638;51.122;13.606;2023-03-14T16:07:56;0.50;;;0.30;;
68655;SDS011;55638;51.122;13.606;2023-03-14T16:09:28;0.40;;;0.28;;
68655;SDS011;55638;51.122;13.606;2023-03-14T16:11:00;1.00;;;0.30;;
68655;SDS011;55638;51.122;13.606;2023-03-14T16:12:32;0.93;;;0.40;;
68655;SDS011;55638;51.122;13.606;2023-03-14T16:14:05;0.77;;;0.57;;
68655;SDS011;55638;51.122;13.606;2023-03-14T16:15:37;0.98;;;0.40;;
68655;SDS011;55638;51.122;13.606;2023-03-14T16:17:09;1.10;;;0.20;;
68655;SDS011;55638;51.122;13.606;2023-03-14T16:18:42;0.45;;;0.17;;
68655;SDS011;55638;51.122;13.606;2023-03-14T16:20:14;0.40;;;0.22;;
68655;SDS011;55638;51.122;13.606;2023-03-14T16:21:46;0.47;;;0.20;;
68655;SDS011;55638;51.122;13.606;2023-03-14T16:23:17;0.20;;;0.20;;
68655;SDS011;55638;51.122;13.606;2023-03-14T16:24:49;0.25;;;0.20;;
68655;SDS011;55638;51.122;13.606;2023-03-14T16:26:21;0.38;;;0.30;;
68655;SDS011;55638;51.122;13.606;2023-03-14T16:27:53;0.45;;;0.40;;
68655;SDS011;55638;51.122;13.606;2023-03-14T16:29:41;0.28;;;0.28;;
68655;SDS011;55638;51.122;13.606;2023-03-14T16:31:15;0.40;;;0.25;;
68655;SDS011;55638;51.122;13.606;2023-03-14T16:32:49;0.30;;;0.20;;
68655;SDS011;55638;51.122;13.606;2023-03-14T16:34:20;1.23;;;0.40;;
68655;SDS011;55638;51.122;13.606;2023-03-14T16:35:53;0.20;;;0.10;;
68655;SDS011;55638;51.122;13.606;2023-03-14T16:37:26;2.10;;;0.30;;
68655;SDS011;55638;51.122;13.606;2023-03-14T16:38:58;0.10;;;0.10;;
68655;SDS011;55638;51.122;13.606;2023-03-14T16:40:30;0.30;;;0.20;;
68655;SDS011;55638;51.122;13.606;2023-03-14T16:42:02;1.30;;;0.38;;
68655;SDS011;55638;51.122;13.606;2023-03-14T16:43:33;1.25;;;0.20;;
68655;SDS011;55638;51.122;13.606;2023-03-14T16:45:07;0.75;;;0.20;;
68655;SDS011;55638;51.122;13.606;2023-03-14T16:46:40;1.65;;;0.40;;
68655;SDS011;55638;51.122;13.606;2023-03-14T16:48:12;0.30;;;0.30;;
68655;SDS011;55638;51.122;13.606;2023-03-14T16:49:44;0.10;;;0.10;;
68655;SDS011;55638;51.122;13.606;2023-03-14T16:51:15;2.22;;;0.30;;
68655;SDS011;55638;51.122;13.606;2023-03-14T16:52:47;0.98;;;0.20;;
68655;SDS011;55638;51.122;13.606;2023-03-14T16:54:20;0.60;;;0.20;;
68655;SDS011;55638;51.122;13.606;2023-03-14T16:55:52;0.30;;;0.17;;
68655;SDS011;55638;51.122;13.606;2023-03-14T16:57:23;0.13;;;0.10;;
68655;SDS011;55638;51.122;13.606;2023-03-14T16:58:55;1.25;;;0.20;;
68655;SDS011;55638;51.122;13.606;2023-03-14T17:00:27;0.77;;;0.30;;
68655;SDS011;55638;51.122;13.606;2023-03-14T17:01:59;0.75;;;0.20;;
68655;SDS011;55638;51.122;13.606;2023-03-14T17:03:31;0.38;;;0.30;;
68655;SDS011;55638;51.122;13.606;2023-03-14T17:05:03;0.15;;;0.10;;
68655;SDS011;55638;51.122;13.606;2023-03-14T17:06:35;0.10;;;0.10;;
68655;SDS011;55638;51.122;13.606;2023-03-14T17:08:07;0.10;;;0.10;;
68655;SDS011;55638;51.122;13.606;2023-03-14T17:09:39;0.20;;;0.20;;
68655;SDS011;55638;51.122;13.606;2023-03-14T17:11:10;0.63;;;0.20;;
68655;SDS011;55638;51.122;13.606;2023-03-14T17:12:43;0.22;;;0.20;;
68655;SDS011;55638;51.122;13.606;2023-03-14T17:14:15;0.30;;;0.20;;
68655;SDS011;55638;51.122;13.606;2023-03-14T17:15:51;0.52;;;0.30;;
68655;SDS011;55638;51.122;13.606;2023-03-14T17:17:24;0.20;;;0.20;;
68655;SDS011;55638;51.122;13.606;2023-03-14T17:18:55;0.20;;;0.20;;
68655;SDS011;55638;51.122;13.606;2023-03-14T17:20:28;0.20;;;0.20;;
68655;SDS011;55638;51.122;13.606;2023-03-14T17:22:00;0.20;;;0.20;;
68655;SDS011;55638;51.122;13.606;2023-03-14T17:23:52;0.30;;;0.20;;
68655;SDS011;55638;51.122;13.606;2023-03-14T17:25:24;1.30;;;0.28;;
68655;SDS011;55638;51.122;13.606;2023-03-14T17:26:56;0.28;;;0.22;;
68655;SDS011;55638;51.122;13.606;2023-03-14T17:28:27;1.95;;;0.20;;
68655;SDS011;55638;51.122;13.606;2023-03-14T17:30:01;0.10;;;0.10;;
68655;SDS011;55638;51.122;13.606;2023-03-14T17:31:34;0.10;;;0.10;;
68655;SDS011;55638;51.122;13.606;2023-03-14T17:33:06;0.30;;;0.30;;
68655;SDS011;55638;51.122;13.606;2023-03-14T17:34:38;0.30;;;0.20;;
68655;SDS011;55638;51.122;13.606;2023-03-14T17:36:10;0.10;;;0.10;;
68655;SDS011;55638;51.122;13.606;2023-03-14T17:37:46;0.17;;;0.10;;
68655;SDS011;55638;51.122;13.606;2023-03-14T17:39:18;0.32;;;0.10;;
68655;SDS011;55638;51.122;13.606;2023-03-14T17:40:50;0.40;;;0.10;;
68655;SDS011;55638;51.122;13.606;2023-03-14T17:42:21;0.95;;;0.13;;
68655;SDS011;55638;51.122;13.606;2023-03-14T17:43:53;0.43;;;0.10;;
68655;SDS011;55638;51.122;13.606;2023-03-14T17:45:25;0.20;;;0.10;;
68655;SDS011;55638;51.122;13.606;2023-03-14T17:46:57;0.28;;;0.20;;
68655;SDS011;55638;51.122;13.606;2023-03-14T17:48:32;0.50;;;0.17;;
68655;SDS011;55638;51.122;13.606;2023-03-14T17:50:04;0.88;;;0.40;;
68655;SDS011;55638;51.122;13.606;2023-03-14T17:51:36;0.35;;;0.20;;
68655;SDS011;55638;51.122;13.606;2023-03-14T17:53:07;2.20;;;0.35;;
68655;SDS011;55638;51.122;13.606;2023-03-14T17:54:39;0.47;;;0.30;;
68655;SDS011;55638;51.122;13.606;2023-03-14T17:56:11;2.40;;;0.68;;
68655;SDS011;55638;51.122;13.606;2023-03-14T17:57:43;2.88;;;0.60;;
68655;SDS011;55638;51.122;13.606;2023-03-14T17:59:15;1.15;;;0.40;;
68655;SDS011;55638;51.122;13.606;2023-03-14T18:00:47;1.10;;;0.38;;
68655;SDS011;55638;51.122;13.606;2023-03-14T18:02:19;1.38;;;0.50;;
68655;SDS011;55638;51.122;13.606;2023-03-14T18:03:52;3.10;;;0.50;;
68655;SDS011;55638;51.122;13.606;2023-03-14T18:05:26;1.80;;;0.50;;
68655;SDS011;55638;51.122;13.606;2023-03-14T18:06:58;1.58;;;0.70;;
68655;SDS011;55638;51.122;13.606;2023-03-14T18:08:30;0.77;;;0.40;;
68655;SDS011;55638;51.122;13.606;2023-03-14T18:10:03;1.90;;;0.55;;
68655;SDS011;55638;51.122;13.606;2023-03-14T18:11:36;4.18;;;0.52;;
68655;SDS011;55638;51.122;13.606;2023-03-14T18:13:07;2.08;;;0.73;;
68655;SDS011;55638;51.122;13.606;2023-03-14T18:14:39;1.33;;;0.50;;
68655;SDS011;55638;51.122;13.606;2023-03-14T18:16:15;1.95;;;0.60;;
68655;SDS011;55638;51.122;13.606;2023-03-14T18:17:47;2.85;;;0.70;;
68655;SDS011;55638;51.122;13.606;2023-03-14T18:19:19;1.45;;;0.77;;
68655;SDS011;55638;51.122;13.606;2023-03-14T18:20:51;2.80;;;0.80;;
68655;SDS011;55638;51.122;13.606;2023-03-14T18:22:24;2.20;;;0.75;;
68655;SDS011;55638;51.122;13.606;2023-03-14T18:23:56;2.13;;;0.60;;
68655;SDS011;55638;51.122;13.606;2023-03-14T18:25:28;1.13;;;0.52;;
68655;SDS011;55638;51.122;13.606;2023-03-14T18:27:00;3.58;;;0.70;;
68655;SDS011;55638;51.122;13.606;2023-03-14T18:28:32;1.38;;;0.50;;
68655;SDS011;55638;51.122;13.606;2023-03-14T18:30:04;2.75;;;0.85;;
68655;SDS011;55638;51.122;13.606;2023-03-14T18:31:36;2.25;;;0.57;;
68655;SDS011;55638;51.122;13.606;2023-03-14T18:33:08;1.20;;;0.45;;
68655;SDS011;55638;51.122;13.606;2023-03-14T18:34:40;3.80;;;0.77;;
68655;SDS011;55638;51.122;13.606;2023-03-14T18:36:13;3.55;;;0.70;;
68655;SDS011;55638;51.122;13.606;2023-03-14T18:37:46;3.38;;;0.70;;
68655;SDS011;55638;51.122;13.606;2023-03-14T18:39:17;1.75;;;0.70;;
68655;SDS011;55638;51.122;13.606;2023-03-14T18:40:49;2.85;;;0.75;;
68655;SDS011;55638;51.122;13.606;2023-03-14T18:42:21;3.58;;;0.70;;
68655;SDS011;55638;51.122;13.606;2023-03-14T18:43:53;1.88;;;0.80;;
68655;SDS011;55638;51.122;13.606;2023-03-14T18:45:25;3.33;;;0.45;;
68655;SDS011;55638;51.122;13.606;2023-03-14T18:46:57;2.97;;;0.60;;
68655;SDS011;55638;51.122;13.606;2023-03-14T18:48:29;0.65;;;0.40;;
68655;SDS011;55638;51.122;13.606;2023-03-14T18:50:03;0.80;;;0.50;;
68655;SDS011;55638;51.122;13.606;2023-03-14T18:51:35;1.33;;;0.50;;
68655;SDS011;55638;51.122;13.606;2023-03-14T18:53:07;0.77;;;0.60;;
68655;SDS011;55638;51.122;13.606;2023-03-14T18:54:38;1.75;;;0.40;;
68655;SDS011;55638;51.122;13.606;2023-03-14T18:56:10;1.95;;;0.75;;
68655;SDS011;55638;51.122;13.606;2023-03-14T18:57:44;1.25;;;0.47;;
68655;SDS011;55638;51.122;13.606;2023-03-14T18:59:16;2.00;;;0.50;;
68655;SDS011;55638;51.122;13.606;2023-03-14T19:00:48;2.35;;;0.70;;
68655;SDS011;55638;51.122;13.606;2023-03-14T19:02:20;4.40;;;1.48;;
68655;SDS011;55638;51.122;13.606;2023-03-14T19:03:51;1.90;;;1.17;;
68655;SDS011;55638;51.122;13.606;2023-03-14T19:05:23;2.55;;;1.00;;
68655;SDS011;55638;51.122;13.606;2023-03-14T19:06:55;2.63;;;0.85;;
68655;SDS011;55638;51.122;13.606;2023-03-14T19:08:27;1.77;;;0.80;;
68655;SDS011;55638;51.122;13.606;2023-03-14T19:10:00;2.70;;;0.88;;
68655;SDS011;55638;51.122;13.606;2023-03-14T19:11:31;2.47;;;1.00;;
68655;SDS011;55638;51.122;13.606;2023-03-14T19:13:03;1.25;;;0.50;;
68655;SDS011;55638;51.122;13.606;2023-03-14T19:14:35;2.05;;;0.57;;
68655;SDS011;55638;51.122;13.606;2023-03-14T19:16:09;1.92;;;0.75;;
68655;SDS011;55638;51.122;13.606;2023-03-14T19:17:43;2.80;;;0.80;;
68655;SDS011;55638;51.122;13.606;2023-03-14T19:19:15;2.72;;;0.70;;
68655;SDS011;55638;51.122;13.606;2023-03-14T19:20:54;2.85;;;0.80;;
68655;SDS011;55638;51.122;13.606;2023-03-14T19:22:31;2.83;;;0.80;;
68655;SDS011;55638;51.122;13.606;2023-03-14T19:24:03;2.55;;;0.70;;
68655;SDS011;55638;51.122;13.606;2023-03-14T19:25:35;1.33;;;0.60;;
68655;SDS011;55638;51.122;13.606;2023-03-14T19:27:07;3.63;;;0.98;;
68655;SDS011;55638;51.122;13.606;2023-03-14T19:28:39;3.20;;;0.80;;
68655;SDS011;55638;51.122;13.606;2023-03-14T19:30:11;4.28;;;1.40;;
68655;SDS011;55638;51.122;13.606;2023-03-14T19:31:43;4.25;;;1.15;;
68655;SDS011;55638;51.122;13.606;2023-03-14T19:33:15;2.78;;;0.80;;
68655;SDS011;55638;51.122;13.606;2023-03-14T19:34:47;3.05;;;0.90;;
68655;SDS011;55638;51.122;13.606;2023-03-14T19:36:23;4.28;;;1.15;;
68655;SDS011;55638;51.122;13.606;2023-03-14T19:37:59;3.47;;;0.98;;
68655;SDS011;55638;51.122;13.606;2023-03-14T19:39:31;5.30;;;1.10;;
68655;SDS011;55638;51.122;13.606;2023-03-14T19:41:03;3.25;;;0.90;;
68655;SDS011;55638;51.122;13.606;2023-03-14T19:42:35;2.35;;;0.93;;
68655;SDS011;55638;51.122;13.606;2023-03-14T19:44:06;3.72;;;1.10;;
68655;SDS011;55638;51.122;13.606;2023-03-14T19:45:40;3.05;;;1.00;;
68655;SDS011;55638;51.122;13.606;2023-03-14T19:47:13;2.58;;;0.90;;
68655;SDS011;55638;51.122;13.606;2023-03-14T19:48:44;4.65;;;1.30;;
68655;SDS011;55638;51.122;13.606;2023-03-14T19:50:16;4.80;;;1.30;;
68655;SDS011;55638;51.122;13.606;2023-03-14T19:51:48;3.42;;;0.80;;
68655;SDS011;55638;51.122;13.606;2023-03-14T19:53:20;3.92;;;1.00;;
68655;SDS011;55638;51.122;13.606;2023-03-14T19:54:52;4.82;;;1.05;;
68655;SDS011;55638;51.122;13.606;2023-03-14T19:56:25;3.83;;;1.00;;
68655;SDS011;55638;51.122;13.606;2023-03-14T19:57:56;3.83;;;1.02;;
68655;SDS011;55638;51.122;13.606;2023-03-14T19:59:28;5.00;;;0.82;;
68655;SDS011;55638;51.122;13.606;2023-03-14T20:01:00;2.78;;;0.75;;
68655;SDS011;55638;51.122;13.606;2023-03-14T20:02:32;4.35;;;1.08;;
68655;SDS011;55638;51.122;13.606;2023-03-14T20:04:04;3.40;;;0.95;;
68655;SDS011;55638;51.122;13.606;2023-03-14T20:05:39;5.75;;;0.95;;
68655;SDS011;55638;51.122;13.606;2023-03-14T20:07:12;5.00;;;1.10;;
68655;SDS011;55638;51.122;13.606;2023-03-14T20:08:44;3.90;;;1.25;;
68655;SDS011;55638;51.122;13.606;2023-03-14T20:10:17;4.75;;;1.17;;
68655;SDS011;55638;51.122;13.606;2023-03-14T20:11:51;3.45;;;1.00;;
68655;SDS011;55638;51.122;13.606;2023-03-14T20:13:22;3.10;;;0.80;;
68655;SDS011;55638;51.122;13.606;2023-03-14T20:14:54;3.05;;;0.90;;
68655;SDS011;55638;51.122;13.606;2023-03-14T20:16:26;4.30;;;0.80;;
68655;SDS011;55638;51.122;13.606;2023-03-14T20:17:58;4.63;;;1.15;;
68655;SDS011;55638;51.122;13.606;2023-03-14T20:19:30;3.00;;;0.98;;
68655;SDS011;55638;51.122;13.606;2023-03-14T20:21:04;4.20;;;1.10;;
68655;SDS011;55638;51.122;13.606;2023-03-14T20:22:40;4.05;;;1.45;;
68655;SDS011;55638;51.122;13.606;2023-03-14T20:24:12;5.25;;;1.67;;
68655;SDS011;55638;51.122;13.606;2023-03-14T20:25:51;5.97;;;1.38;;
68655;SDS011;55638;51.122;13.606;2023-03-14T20:27:27;3.80;;;0.88;;
68655;SDS011;55638;51.122;13.606;2023-03-14T20:28:59;3.80;;;1.00;;
68655;SDS011;55638;51.122;13.606;2023-03-14T20:30:31;6.00;;;1.27;;
68655;SDS011;55638;51.122;13.606;2023-03-14T20:32:03;5.93;;;1.20;;
68655;SDS011;55638;51.122;13.606;2023-03-14T20:33:37;2.13;;;1.05;;
68655;SDS011;55638;51.122;13.606;2023-03-14T20:35:09;3.80;;;0.90;;
68655;SDS011;55638;51.122;13.606;2023-03-14T20:36:42;3.15;;;1.00;;
68655;SDS011;55638;51.122;13.606;2023-03-14T20:38:15;3.80;;;1.05;;
68655;SDS011;55638;51.122;13.606;2023-03-14T20:39:47;4.10;;;1.02;;
68655;SDS011;55638;51.122;13.606;2023-03-14T20:41:19;4.60;;;1.15;;
68655;SDS011;55638;51.122;13.606;2023-03-14T20:42:51;3.25;;;0.70;;
68655;SDS011;55638;51.122;13.606;2023-03-14T20:44:23;4.95;;;0.75;;
68655;SDS011;55638;51.122;13.606;2023-03-14T20:45:56;4.05;;;1.17;;
68655;SDS011;55638;51.122;13.606;2023-03-14T20:47:29;3.15;;;1.30;;
68655;SDS011;55638;51.122;13.606;2023-03-14T20:49:00;5.25;;;1.10;;
68655;SDS011;55638;51.122;13.606;2023-03-14T20:50:33;5.68;;;1.40;;
68655;SDS011;55638;51.122;13.606;2023-03-14T20:52:05;5.10;;;1.55;;
68655;SDS011;55638;51.122;13.606;2023-03-14T20:53:38;5.15;;;1.90;;
68655;SDS011;55638;51.122;13.606;2023-03-14T20:55:10;6.07;;;1.80;;
68655;SDS011;55638;51.122;13.606;2023-03-14T20:56:41;6.32;;;1.88;;
68655;SDS011;55638;51.122;13.606;2023-03-14T20:58:16;4.55;;;1.58;;
68655;SDS011;55638;51.122;13.606;2023-03-14T20:59:48;6.35;;;1.40;;
68655;SDS011;55638;51.122;13.606;2023-03-14T21:01:20;6.68;;;1.20;;
68655;SDS011;55638;51.122;13.606;2023-03-14T21:02:53;4.35;;;0.98;;
68655;SDS011;55638;51.122;13.606;2023-03-14T21:04:25;2.90;;;1.05;;
68655;SDS011;55638;51.122;13.606;2023-03-14T21:05:57;4.82;;;1.10;;
68655;SDS011;55638;51.122;13.606;2023-03-14T21:07:29;5.72;;;1.10;;
68655;SDS011;55638;51.122;13.606;2023-03-14T21:09:03;3.53;;;1.10;;
68655;SDS011;55638;51.122;13.606;2023-03-14T21:10:36;4.72;;;1.42;;
68655;SDS011;55638;51.122;13.606;2023-03-14T21:12:08;7.65;;;1.23;;
68655;SDS011;55638;51.122;13.606;2023-03-14T21:13:39;2.97;;;1.25;;
68655;SDS011;55638;51.122;13.606;2023-03-14T21:15:11;3.65;;;1.10;;
68655;SDS011;55638;51.122;13.606;2023-03-14T21:16:46;2.75;;;0.98;;
68655;SDS011;55638;51.122;13.606;2023-03-14T21:18:17;5.93;;;1.10;;
68655;SDS011;55638;51.122;13.606;2023-03-14T21:19:50;3.90;;;0.85;;
68655;SDS011;55638;51.122;13.606;2023-03-14T21:21:28;4.38;;;1.13;;
68655;SDS011;55638;51.122;13.606;2023-03-14T21:23:00;4.70;;;1.10;;
68655;SDS011;55638;51.122;13.606;2023-03-14T21:24:32;3.90;;;0.95;;
68655;SDS011;55638;51.122;13.606;2023-03-14T21:26:04;4.07;;;1.10;;
68655;SDS011;55638;51.122;13.606;2023-03-14T21:27:37;6.22;;;0.95;;
68655;SDS011;55638;51.122;13.606;2023-03-14T21:29:10;3.88;;;0.80;;
68655;SDS011;55638;51.122;13.606;2023-03-14T21:30:42;2.85;;;0.77;;
68655;SDS011;55638;51.122;13.606;2023-03-14T21:32:14;3.20;;;0.85;;
68655;SDS011;55638;51.122;13.606;2023-03-14T21:33:46;3.45;;;1.20;;
68655;SDS011;55638;51.122;13.606;2023-03-14T21:35:19;7.68;;;1.10;;
68655;SDS011;55638;51.122;13.606;2023-03-14T21:36:51;5.57;;;1.30;;
68655;SDS011;55638;51.122;13.606;2023-03-14T21:38:23;6.85;;;1.00;;
68655;SDS011;55638;51.122;13.606;2023-03-14T21:39:55;4.68;;;1.20;;
68655;SDS011;55638;51.122;13.606;2023-03-14T21:41:27;5.45;;;1.02;;
68655;SDS011;55638;51.122;13.606;2023-03-14T21:42:58;2.72;;;0.98;;
68655;SDS011;55638;51.122;13.606;2023-03-14T21:44:31;5.90;;;0.98;;
68655;SDS011;55638;51.122;13.606;2023-03-14T21:46:07;5.57;;;1.58;;
68655;SDS011;55638;51.122;13.606;2023-03-14T21:47:39;6.45;;;1.15;;
68655;SDS011;55638;51.122;13.606;2023-03-14T21:49:15;4.85;;;1.27;;